Time;durP1;ratioP1;P1;durP2;ratioP2;P2;SDS_P1;SDS_P2;PMS_P1;PMS_P2;Temp;Humidity;BMP_temperature;BMP_pressure;BME280_temperature;BME280_humidity;BME280_pressure;Samples;Min_cycle;Max_cycle;Signal;HPM_P1;HPM_P2
2021/03/14 00:01:06;;;;;;;52.50;29.57;;;;;;;8.00;62.29;100530.55;1776631;81;21179;-54
2021/03/14 00:03:36;;;;;;;57.38;32.33;;;;;;;8.52;61.14;100527.52;1767354;81;21127;-61
2021/03/14 00:06:04;;;;;;;58.80;34.20;;;;;;;8.98;59.82;100524.34;1754865;81;21130;-55
2021/03/14 00:08:32;;;;;;;58.95;32.95;;;;;;;9.06;59.45;100524.74;1765678;79;21147;-55
2021/03/14 00:11:05;;;;;;;58.02;34.80;;;;;;;8.99;59.47;100528.27;1767552;81;21167;-61
2021/03/14 00:13:36;;;;;;;57.43;32.75;;;;;;;8.36;61.30;100531.87;1755883;81;21304;-61
2021/03/14 00:16:06;;;;;;;58.98;34.30;;;;;;;8.31;61.54;100529.23;1756670;79;21159;-61
2021/03/14 00:18:40;;;;;;;60.03;33.63;;;;;;;8.38;61.41;100528.81;1755986;81;21151;-55
2021/03/14 00:21:09;;;;;;;59.45;33.00;;;;;;;8.67;61.01;100525.72;1678546;83;21326;-61
2021/03/14 00:23:37;;;;;;;62.73;33.80;;;;;;;8.36;61.53;100526.62;1759134;81;21183;-55
2021/03/14 00:26:05;;;;;;;63.40;34.30;;;;;;;8.35;61.65;100527.50;1759015;79;21135;-55
2021/03/14 00:28:33;;;;;;;66.87;35.20;;;;;;;8.40;61.55;100530.97;1750514;81;21171;-61
2021/03/14 00:31:01;;;;;;;62.98;34.67;;;;;;;8.63;61.13;100523.55;1778806;81;21107;-55
2021/03/14 00:33:29;;;;;;;60.48;33.70;;;;;;;8.52;61.17;100522.27;1778731;81;21321;-61
2021/03/14 00:35:56;;;;;;;64.05;35.05;;;;;;;8.39;61.51;100521.35;1758045;81;21174;-61
2021/03/14 00:38:24;;;;;;;60.17;33.08;;;;;;;8.40;61.48;100516.54;1762023;81;21519;-61
2021/03/14 00:40:52;;;;;;;63.15;34.23;;;;;;;8.60;60.96;100511.75;1746429;82;21143;-55
2021/03/14 00:43:20;;;;;;;62.43;35.28;;;;;;;8.29;61.80;100516.56;1749426;79;21162;-55
2021/03/14 00:45:47;;;;;;;58.60;33.00;;;;;;;8.28;61.91;100515.27;1775309;81;21689;-55
2021/03/14 00:48:17;;;;;;;61.28;33.63;;;;;;;8.29;61.99;100509.15;1748767;81;21282;-61
2021/03/14 00:50:45;;;;;;;61.75;35.00;;;;;;;8.30;61.93;100500.41;1714663;84;21567;-55
2021/03/14 00:53:14;;;;;;;62.08;34.13;;;;;;;8.31;61.93;100496.91;1723944;82;21308;-61
2021/03/14 00:55:44;;;;;;;65.22;34.08;;;;;;;8.32;61.87;100492.95;1753026;80;21154;-55
2021/03/14 00:58:13;;;;;;;62.15;34.50;;;;;;;8.33;61.84;100491.22;1746454;82;21147;-55
2021/03/14 01:00:41;;;;;;;61.80;33.08;;;;;;;8.38;61.83;100494.72;1746456;82;21163;-61
2021/03/14 01:03:09;;;;;;;58.28;32.45;;;;;;;8.46;61.63;100494.24;1755058;79;21172;-61
2021/03/14 01:05:39;;;;;;;57.85;32.35;;;;;;;8.51;61.56;100493.39;1777071;80;21119;-55
2021/03/14 01:08:08;;;;;;;61.28;34.43;;;;;;;8.54;61.54;100486.41;1787297;80;21200;-55
2021/03/14 01:10:36;;;;;;;61.18;33.90;;;;;;;8.52;61.58;100484.65;1771207;79;21149;-54
2021/03/14 01:13:05;;;;;;;60.60;34.65;;;;;;;8.52;61.52;100485.96;1768343;80;21188;-55
2021/03/14 01:15:33;;;;;;;58.55;33.45;;;;;;;8.55;61.46;100476.36;1756112;82;21142;-55
2021/03/14 01:18:02;;;;;;;59.55;32.75;;;;;;;8.51;61.55;100481.17;1729421;82;21154;-61
2021/03/14 01:20:30;;;;;;;58.40;31.65;;;;;;;8.47;61.65;100477.63;1772384;79;21142;-61
2021/03/14 01:22:57;;;;;;;59.58;33.75;;;;;;;8.44;61.66;100476.77;1781316;80;21456;-55
2021/03/14 01:25:25;;;;;;;59.88;33.48;;;;;;;8.46;61.64;100477.19;1786801;80;21135;-61
2021/03/14 01:27:55;;;;;;;58.05;32.23;;;;;;;8.51;61.54;100470.67;1756159;82;21170;-55
2021/03/14 01:30:22;;;;;;;61.68;33.00;;;;;;;8.54;61.43;100462.80;1772152;79;21107;-55
2021/03/14 01:32:51;;;;;;;58.60;32.70;;;;;;;8.47;61.59;100458.41;1771380;80;21202;-56
2021/03/14 01:35:19;;;;;;;58.52;32.60;;;;;;;8.52;61.44;100450.13;1766303;80;21677;-61
2021/03/14 01:37:47;;;;;;;63.42;32.45;;;;;;;8.48;61.55;100450.97;1755790;79;21143;-55
2021/03/14 01:40:17;;;;;;;61.02;33.95;;;;;;;8.49;61.53;100448.82;1756869;80;21123;-61
2021/03/14 01:42:45;;;;;;;64.90;33.13;;;;;;;8.51;61.44;100444.86;1768174;80;21204;-55
2021/03/14 01:45:16;;;;;;;57.03;31.95;;;;;;;8.53;61.38;100440.48;1756176;82;21167;-55
2021/03/14 01:47:50;;;;;;;51.58;29.87;;;;;;;8.53;61.39;100437.44;1771053;79;21131;-61
2021/03/14 01:50:24;;;;;;;56.05;30.48;;;;;;;8.52;61.40;100426.52;1769388;80;21262;-55
2021/03/14 01:52:52;;;;;;;51.45;29.07;;;;;;;8.53;61.43;100428.68;1781259;80;21175;-61
2021/03/14 01:55:22;;;;;;;52.88;29.77;;;;;;;8.59;61.27;100434.80;1698629;83;21281;-62
2021/03/14 01:57:52;;;;;;;52.98;29.27;;;;;;;8.60;61.22;100436.97;1702261;82;21183;-62
2021/03/14 02:00:24;;;;;;;52.20;30.40;;;;;;;8.65;61.04;100438.26;1771745;80;21111;-60
2021/03/14 02:02:52;;;;;;;51.77;29.50;;;;;;;8.60;61.24;100442.22;1759384;80;21517;-55
2021/03/14 02:05:20;;;;;;;52.08;29.85;;;;;;;8.71;60.99;100439.55;1761737;79;21143;-61
2021/03/14 02:07:51;;;;;;;50.38;29.10;;;;;;;8.77;60.91;100439.53;1774546;79;21162;-55
2021/03/14 02:10:25;;;;;;;48.45;28.92;;;;;;;8.82;60.74;100430.34;1714784;84;21175;-55
2021/03/14 02:13:13;;;;;;;50.85;30.37;;;;;;;8.77;60.72;100431.23;1701142;84;21211;-62
2021/03/14 02:16:06;;;;;;;49.38;30.32;;;;;;;8.62;61.03;100430.83;1721245;82;21575;-55
2021/03/14 02:18:36;;;;;;;46.88;27.55;;;;;;;8.54;61.38;100436.56;1750318;80;21199;-55
2021/03/14 02:21:05;;;;;;;52.15;29.55;;;;;;;8.57;61.29;100433.94;1759190;80;21139;-55
2021/03/14 02:23:58;;;;;;;52.65;30.40;;;;;;;8.49;61.40;100426.52;1757654;80;21154;-61
2021/03/14 02:26:37;;;;;;;52.83;31.90;;;;;;;8.41;61.59;100431.73;1785717;80;21103;-55
2021/03/14 02:29:04;;;;;;;59.85;33.10;;;;;;;8.29;61.85;100433.95;1757661;80;21186;-61
2021/03/14 02:31:32;;;;;;;58.70;33.40;;;;;;;8.23;61.98;100429.17;1754914;82;21134;-61
2021/03/14 02:34:06;;;;;;;59.15;33.13;;;;;;;8.18;62.04;100431.78;1775285;79;21176;-61
2021/03/14 02:36:36;;;;;;;57.33;32.63;;;;;;;8.11;62.31;100432.69;1777173;80;21194;-56
2021/03/14 02:39:08;;;;;;;54.93;32.42;;;;;;;8.09;62.47;100429.20;1780969;80;21308;-55
2021/03/14 02:41:36;;;;;;;64.65;35.73;;;;;;;8.04;62.56;100422.20;1778891;80;21182;-55
2021/03/14 02:44:04;;;;;;;60.65;35.03;;;;;;;7.99;62.74;100420.45;1781686;80;21182;-55
2021/03/14 02:46:31;;;;;;;61.37;35.10;;;;;;;7.96;62.81;100417.83;1769747;80;21150;-56
2021/03/14 02:48:59;;;;;;;59.75;33.85;;;;;;;7.81;63.19;100411.74;1787075;80;21194;-58
2021/03/14 02:51:27;;;;;;;58.40;33.02;;;;;;;7.85;63.20;100408.25;1764463;80;21170;-61
2021/03/14 02:53:55;;;;;;;63.10;35.40;;;;;;;7.82;63.26;100408.25;1764252;80;21194;-56
2021/03/14 02:56:23;;;;;;;67.12;35.83;;;;;;;7.81;63.39;100409.55;1755566;82;21178;-55
2021/03/14 02:58:51;;;;;;;63.73;36.05;;;;;;;7.75;63.55;100403.88;1754640;82;21159;-55
2021/03/14 03:01:18;;;;;;;62.33;35.55;;;;;;;7.79;63.58;100403.43;1752494;80;21162;-55
2021/03/14 03:03:47;;;;;;;62.65;35.45;;;;;;;7.81;63.66;100402.57;1783237;80;21265;-55
2021/03/14 03:06:16;;;;;;;61.58;36.48;;;;;;;7.80;63.73;100396.89;1781423;80;21143;-61
2021/03/14 03:08:43;;;;;;;67.72;36.38;;;;;;;7.87;63.77;100395.13;1757296;80;21190;-56
2021/03/14 03:11:15;;;;;;;60.20;34.98;;;;;;;7.91;63.81;100392.09;1755185;80;21131;-55
2021/03/14 03:13:43;;;;;;;65.00;36.63;;;;;;;7.94;63.75;100390.32;1765137;80;21130;-55
2021/03/14 03:16:15;;;;;;;62.00;34.53;;;;;;;7.89;64.12;100395.58;1754996;80;21139;-60
2021/03/14 03:18:43;;;;;;;61.45;34.25;;;;;;;7.96;64.13;100396.44;1764613;79;21150;-55
2021/03/14 03:21:11;;;;;;;63.83;36.53;;;;;;;8.13;63.97;100399.03;1761564;80;21127;-55
2021/03/14 03:23:39;;;;;;;69.50;36.77;;;;;;;8.14;64.03;100395.98;1773327;80;21150;-61
2021/03/14 03:26:08;;;;;;;64.40;35.68;;;;;;;8.18;64.01;100401.20;1756307;82;21150;-55
2021/03/14 03:28:36;;;;;;;64.17;36.20;;;;;;;8.24;63.84;100400.31;1776807;79;21123;-55
2021/03/14 03:31:03;;;;;;;57.88;34.03;;;;;;;8.29;63.81;100395.93;1779856;80;21195;-61
2021/03/14 03:33:32;;;;;;;61.58;35.48;;;;;;;8.34;63.75;100393.31;1772402;80;21143;-55
2021/03/14 03:36:00;;;;;;;63.90;35.25;;;;;;;8.38;63.68;100392.43;1756354;82;21166;-61
2021/03/14 03:38:27;;;;;;;59.65;34.85;;;;;;;8.42;63.60;100394.14;1774632;79;21190;-61
2021/03/14 03:40:55;;;;;;;61.00;36.05;;;;;;;8.42;63.58;100391.52;1743970;81;21149;-55
2021/03/14 03:43:28;;;;;;;58.17;34.03;;;;;;;8.46;63.56;100393.70;1756141;80;21166;-55
2021/03/14 03:45:59;;;;;;;61.40;34.98;;;;;;;8.51;63.40;100392.40;1767908;79;21131;-61
2021/03/14 03:48:35;;;;;;;;;;;;;;;8.52;63.39;100389.78;1777880;81;21163;-61
2021/03/14 03:51:04;;;;;;;52.15;30.40;;;;;;;8.57;63.32;100378.84;1764547;81;20155;-55
2021/03/14 03:53:32;;;;;;;57.48;33.98;;;;;;;8.60;63.16;100369.65;1755616;82;21273;-61
2021/03/14 03:56:01;;;;;;;58.35;34.80;;;;;;;8.56;63.12;100363.98;1774517;80;21123;-55
2021/03/14 03:58:30;;;;;;;61.83;35.60;;;;;;;8.52;63.11;100361.35;1756883;80;21147;-61
2021/03/14 04:00:59;;;;;;;59.73;34.80;;;;;;;8.43;63.29;100359.62;1714730;84;21159;-61
2021/03/14 04:03:27;;;;;;;61.75;36.30;;;;;;;8.41;63.39;100370.09;1756307;80;21119;-53
2021/03/14 04:05:57;;;;;;;55.75;33.80;;;;;;;8.41;63.60;100367.47;1768729;80;21169;-61
2021/03/14 04:08:25;;;;;;;57.88;33.88;;;;;;;8.47;63.73;100374.47;1783692;80;21148;-54
2021/03/14 04:10:54;;;;;;;54.58;33.02;;;;;;;8.48;63.86;100361.36;1747475;82;21178;-61
2021/03/14 04:13:22;;;;;;;66.82;35.60;;;;;;;8.56;63.55;100358.73;1740116;82;21139;-55
2021/03/14 04:15:50;;;;;;;57.53;33.58;;;;;;;8.62;63.43;100358.67;1773816;80;21104;-55
2021/03/14 04:18:18;;;;;;;63.63;32.48;;;;;;;8.69;63.20;100362.16;1778408;80;21204;-61
2021/03/14 04:20:48;;;;;;;55.35;32.98;;;;;;;8.74;63.04;100360.81;1774271;81;21281;-55
2021/03/14 04:23:19;;;;;;;56.08;33.85;;;;;;;8.76;62.91;100361.68;1779319;79;21559;-55
2021/03/14 04:25:52;;;;;;;66.05;33.67;;;;;;;8.79;62.72;100365.61;1733448;82;21127;-61
2021/03/14 04:28:20;;;;;;;64.85;32.38;;;;;;;8.88;62.42;100352.86;1771697;81;21175;-55
2021/03/14 04:30:48;;;;;;;64.37;34.25;;;;;;;8.85;62.40;100353.77;1772767;81;21143;-61
2021/03/14 04:33:16;;;;;;;56.35;32.10;;;;;;;8.89;62.46;100350.24;1761127;79;21150;-54
2021/03/14 04:35:44;;;;;;;46.88;29.55;;;;;;;8.97;62.44;100347.56;1753727;82;21138;-61
2021/03/14 04:38:12;;;;;;;41.08;27.02;;;;;;;8.96;62.65;100339.25;1748883;82;21183;-61
2021/03/14 04:40:40;;;;;;;38.05;26.27;;;;;;;8.91;63.23;100338.41;1741949;79;21547;-61
2021/03/14 04:43:07;;;;;;;38.80;24.95;;;;;;;8.83;63.73;100345.03;1720625;82;21279;-61
2021/03/14 04:45:36;;;;;;;37.48;24.70;;;;;;;8.74;64.37;100342.02;1765261;80;21154;-55
2021/03/14 04:48:04;;;;;;;38.78;25.02;;;;;;;8.69;64.75;100340.28;1747497;82;21737;-55
2021/03/14 04:50:32;;;;;;;31.60;21.57;;;;;;;8.66;64.84;100344.23;1772681;80;21119;-61
2021/03/14 04:53:01;;;;;;;33.08;21.40;;;;;;;8.65;65.19;100343.38;1784342;80;21099;-55
2021/03/14 04:55:31;;;;;;;35.40;23.10;;;;;;;8.65;65.31;100343.38;1781771;80;21154;-61
2021/03/14 04:58:00;;;;;;;34.15;22.20;;;;;;;8.68;65.52;100339.85;1753629;81;21184;-61
2021/03/14 05:00:27;;;;;;;34.35;22.05;;;;;;;8.68;65.70;100343.78;1790348;79;21519;-61
2021/03/14 05:02:59;;;;;;;27.45;17.70;;;;;;;8.69;65.90;100346.84;1728230;82;21274;-55
2021/03/14 05:05:28;;;;;;;27.25;16.80;;;;;;;8.72;66.40;100348.14;1721670;82;21230;-62
2021/03/14 05:07:56;;;;;;;21.90;13.78;;;;;;;8.75;66.31;100343.77;1732067;81;21170;-61
2021/03/14 05:10:24;;;;;;;24.52;16.37;;;;;;;8.74;66.55;100343.33;1723229;81;21119;-61
2021/03/14 05:12:53;;;;;;;26.00;16.50;;;;;;;8.79;66.48;100340.67;1683942;84;21174;-61
2021/03/14 05:15:20;;;;;;;24.67;15.70;;;;;;;8.83;66.56;100341.55;1703405;84;21146;-55
2021/03/14 05:17:49;;;;;;;23.62;16.02;;;;;;;8.89;66.78;100350.24;1726281;81;21149;-61
2021/03/14 05:20:20;;;;;;;22.00;15.25;;;;;;;8.90;66.88;100340.60;1721428;81;21182;-55
2021/03/14 05:22:49;;;;;;;24.72;15.53;;;;;;;8.95;66.87;100340.59;1728984;82;21579;-55
2021/03/14 05:25:20;;;;;;;23.30;14.90;;;;;;;9.03;66.92;100346.67;1717908;83;21141;-61
2021/03/14 05:27:51;;;;;;;22.45;14.63;;;;;;;9.08;66.94;100351.00;1743974;81;21102;-61
2021/03/14 05:30:21;;;;;;;24.15;16.02;;;;;;;9.13;67.01;100353.58;1704177;84;21685;-61
2021/03/14 05:32:50;;;;;;;;;;;;;;;9.15;66.97;100347.88;1706280;84;21292;-61
2021/03/14 05:35:19;;;;;;;22.27;13.58;;;;;;;9.18;67.23;100353.57;1696491;81;20267;-55
2021/03/14 05:37:47;;;;;;;22.50;14.90;;;;;;;9.20;67.34;100355.75;1718118;82;21161;-55
2021/03/14 05:40:16;;;;;;;23.05;15.13;;;;;;;9.25;67.29;100355.27;1720223;83;21174;-61
2021/03/14 05:42:43;;;;;;;24.57;15.35;;;;;;;9.31;67.33;100359.60;1683863;84;21304;-60
2021/03/14 05:45:12;;;;;;;23.42;15.58;;;;;;;9.37;67.29;100359.10;1687294;84;21604;-55
2021/03/14 05:47:39;;;;;;;24.47;15.35;;;;;;;9.42;67.36;100359.09;1731180;82;21148;-61
2021/03/14 05:50:14;;;;;;;24.63;16.10;;;;;;;9.42;67.40;100366.97;1711574;83;21159;-61
2021/03/14 05:52:43;;;;;;;21.85;13.80;;;;;;;9.44;67.39;100368.25;1671971;86;21338;-54
2021/03/14 05:55:22;;;;;;;25.60;15.08;;;;;;;9.46;67.42;100367.38;1738270;81;21165;-61
2021/03/14 05:57:52;;;;;;;24.02;14.45;;;;;;;9.50;67.42;100376.09;1731261;83;21095;-55
2021/03/14 06:00:30;;;;;;;28.23;16.37;;;;;;;9.50;67.49;100373.01;1724214;83;21144;-55
2021/03/14 06:03:01;;;;;;;21.25;13.53;;;;;;;9.52;67.55;100379.58;1731754;81;21150;-61
2021/03/14 06:05:30;;;;;;;;;;;;;;;9.50;67.95;100388.77;1742342;80;21332;-55
2021/03/14 06:07:58;;;;;;;32.05;17.75;;;;;;;9.49;67.83;100390.97;1723940;82;20150;-55
2021/03/14 06:10:28;;;;;;;26.57;16.53;;;;;;;9.52;67.83;100380.89;1722801;83;21151;-55
2021/03/14 06:12:56;;;;;;;29.05;18.20;;;;;;;9.61;67.64;100383.45;1728829;82;21308;-55
2021/03/14 06:15:24;;;;;;;26.82;15.10;;;;;;;9.57;67.74;100381.73;1717744;83;21178;-60
2021/03/14 06:17:51;;;;;;;32.05;19.17;;;;;;;9.62;67.84;100378.63;1727582;82;21177;-55
2021/03/14 06:20:43;;;;;;;31.85;18.05;;;;;;;9.67;67.83;100380.78;1729942;82;21674;-61
2021/03/14 06:23:36;;;;;;;28.02;17.23;;;;;;;9.73;67.87;100382.89;1693101;82;21285;-60
2021/03/14 06:26:06;;;;;;;30.85;19.42;;;;;;;9.78;67.85;100376.73;1693632;84;21587;-55
2021/03/14 06:28:36;;;;;;;36.28;21.85;;;;;;;9.79;67.87;100386.36;1646159;84;21163;-61
2021/03/14 06:31:19;;;;;;;34.92;21.15;;;;;;;9.78;67.88;100388.56;1738301;81;21284;-55
2021/03/14 06:33:46;;;;;;;28.10;18.48;;;;;;;9.84;67.96;100390.25;1733213;83;21214;-60
2021/03/14 06:36:20;;;;;;;31.33;20.77;;;;;;;9.92;67.88;100395.00;1727338;83;21159;-59
2021/03/14 06:38:48;;;;;;;33.33;22.15;;;;;;;9.96;67.72;100397.14;1723875;81;21206;-55
2021/03/14 06:41:21;;;;;;;29.50;20.43;;;;;;;9.97;67.60;100394.52;1732986;83;21215;-55
2021/03/14 06:43:56;;;;;;;26.07;19.25;;;;;;;9.95;67.46;100393.66;1732389;81;21203;-59
2021/03/14 06:46:32;;;;;;;34.23;20.77;;;;;;;9.96;67.55;100387.94;1733171;83;21646;-54
2021/03/14 06:49:14;;;;;;;28.40;20.00;;;;;;;10.03;67.49;100394.89;1731298;81;21295;-56
2021/03/14 06:51:50;;;;;;;32.67;22.70;;;;;;;10.17;67.24;100386.86;1733406;83;21168;-61
2021/03/14 06:54:29;;;;;;;30.37;22.25;;;;;;;10.28;67.13;100388.08;1730924;81;21166;-54
2021/03/14 06:57:15;;;;;;;33.30;24.98;;;;;;;10.33;66.99;100387.59;1689068;83;21192;-60
2021/03/14 06:59:53;;;;;;;28.62;21.90;;;;;;;10.44;66.73;100394.49;1732873;83;21126;-54
2021/03/14 07:02:29;;;;;;;34.53;24.85;;;;;;;10.37;66.85;100387.98;1732308;81;21170;-60
2021/03/14 07:04:59;;;;;;;31.82;22.95;;;;;;;10.41;66.57;100396.27;1688229;85;21628;-60
2021/03/14 07:07:39;;;;;;;29.63;23.05;;;;;;;10.41;66.55;100401.99;1696224;83;21599;-55
2021/03/14 07:10:14;;;;;;;27.52;21.17;;;;;;;10.44;66.33;100405.02;1672359;86;21177;-54
2021/03/14 07:12:44;;;;;;;27.00;19.98;;;;;;;10.48;66.14;100401.05;1733629;81;21178;-60
2021/03/14 07:15:19;;;;;;;24.75;19.32;;;;;;;10.38;65.32;100400.68;1733095;81;21154;-60
2021/03/14 07:17:53;;;;;;;24.92;19.80;;;;;;;10.45;65.65;100397.13;1735590;81;21195;-56
2021/03/14 07:20:27;;;;;;;24.63;19.12;;;;;;;10.35;65.86;100388.44;1732903;83;21138;-56
2021/03/14 07:23:07;;;;;;;26.65;20.05;;;;;;;10.35;65.65;100377.03;1697194;83;21641;-61
2021/03/14 07:25:42;;;;;;;25.02;19.30;;;;;;;10.39;65.94;100374.36;1752975;80;21127;-56
2021/03/14 07:28:12;;;;;;;24.95;19.98;;;;;;;10.45;65.73;100387.03;1755641;82;21151;-61
2021/03/14 07:30:40;;;;;;;27.15;21.37;;;;;;;10.46;65.56;100384.83;1712464;82;21139;-56
2021/03/14 07:33:07;;;;;;;26.90;19.85;;;;;;;10.48;65.59;100376.05;1748058;80;21146;-56
2021/03/14 07:35:35;;;;;;;23.62;18.42;;;;;;;10.56;65.56;100378.57;1761629;81;21163;-61
2021/03/14 07:38:03;;;;;;;28.27;22.45;;;;;;;10.69;65.77;100363.48;1755454;82;21176;-61
2021/03/14 07:40:30;;;;;;;25.68;21.30;;;;;;;10.81;65.67;100371.23;1754675;82;21719;-56
2021/03/14 07:43:02;;;;;;;24.52;20.25;;;;;;;11.01;64.54;100372.27;1753740;80;21166;-61
2021/03/14 07:45:31;;;;;;;21.65;18.62;;;;;;;11.09;64.55;100362.93;1755200;82;21150;-61
2021/03/14 07:48:00;;;;;;;25.95;20.30;;;;;;;11.19;64.52;100365.44;1759435;80;21143;-56
2021/03/14 07:50:32;;;;;;;26.40;20.08;;;;;;;11.16;63.62;100362.41;1756891;80;21162;-57
2021/03/14 07:53:09;;;;;;;25.68;20.43;;;;;;;11.10;63.45;100355.45;1752033;80;21204;-56
2021/03/14 07:55:37;;;;;;;25.43;20.30;;;;;;;11.15;63.62;100359.36;1770574;81;21202;-56
2021/03/14 07:58:05;;;;;;;24.25;20.52;;;;;;;11.16;63.71;100373.80;1773859;81;21299;-62
2021/03/14 08:00:38;;;;;;;26.17;20.35;;;;;;;11.23;63.54;100361.43;1757957;81;21155;-62
2021/03/14 08:03:09;;;;;;;29.10;21.20;;;;;;;11.22;63.28;100363.64;1720460;83;21348;-62
2021/03/14 08:05:44;;;;;;;29.12;19.73;;;;;;;11.31;63.27;100357.35;1722117;82;21155;-62
2021/03/14 08:08:29;;;;;;;26.17;20.32;;;;;;;11.37;63.41;100355.94;1721931;83;21182;-62
2021/03/14 08:10:56;;;;;;;24.35;19.85;;;;;;;11.47;63.08;100357.97;1718525;83;21614;-61
2021/03/14 08:13:36;;;;;;;27.75;21.02;;;;;;;11.54;63.09;100358.73;1765259;81;21273;-55
2021/03/14 08:16:08;;;;;;;26.60;19.87;;;;;;;11.51;62.24;100356.14;1740085;82;21162;-61
2021/03/14 08:18:49;;;;;;;24.65;20.12;;;;;;;11.47;61.83;100365.02;1728224;82;21183;-56
2021/03/14 08:21:29;;;;;;;24.85;19.02;;;;;;;11.45;62.23;100367.66;1724796;82;21293;-61
2021/03/14 08:23:59;;;;;;;21.60;18.57;;;;;;;11.42;61.62;100359.80;1748389;82;21716;-61
2021/03/14 08:26:29;;;;;;;24.45;19.48;;;;;;;11.34;61.53;100359.94;1733387;82;21112;-55
2021/03/14 08:29:13;;;;;;;25.20;20.67;;;;;;;11.34;61.27;100360.38;1758564;80;21730;-62
2021/03/14 08:31:53;;;;;;;24.85;19.95;;;;;;;11.38;61.36;100356.36;1821034;77;22174;-54
2021/03/14 08:34:32;;;;;;;26.20;19.57;;;;;;;11.29;61.34;100358.67;1756625;81;21113;-60
2021/03/14 08:37:04;;;;;;;24.67;19.82;;;;;;;11.41;61.87;100356.75;1731925;80;21178;-56
2021/03/14 08:39:40;;;;;;;26.02;19.95;;;;;;;11.48;61.34;100359.71;1743209;81;21141;-62
2021/03/14 08:42:09;;;;;;;25.43;20.90;;;;;;;11.48;61.28;100364.98;1703145;81;21165;-62
2021/03/14 08:44:44;;;;;;;23.97;19.33;;;;;;;11.51;61.20;100357.45;1761879;81;21123;-62
2021/03/14 08:47:24;;;;;;;24.25;20.50;;;;;;;11.64;61.19;100347.14;1797442;77;22201;-55
2021/03/14 08:49:55;;;;;;;24.57;19.85;;;;;;;11.63;60.70;100355.09;1724600;81;21119;-61
2021/03/14 08:52:25;;;;;;;29.10;22.60;;;;;;;11.69;61.19;100349.72;1730111;83;21187;-61
2021/03/14 08:54:58;;;;;;;27.95;21.73;;;;;;;11.85;61.16;100349.84;1747903;81;21126;-61
2021/03/14 08:57:27;;;;;;;27.67;21.42;;;;;;;11.90;60.58;100345.36;1753316;81;21160;-57
2021/03/14 08:59:57;;;;;;;24.37;19.48;;;;;;;11.91;59.90;100338.34;1743999;81;21275;-56
2021/03/14 09:02:32;;;;;;;28.47;23.20;;;;;;;11.93;60.25;100331.23;1735151;81;21175;-62
2021/03/14 09:05:14;;;;;;;27.75;22.17;;;;;;;11.92;60.05;100336.55;1747695;81;21273;-62
2021/03/14 09:08:01;;;;;;;29.92;23.67;;;;;;;11.93;60.43;100322.47;1743046;81;21107;-63
2021/03/14 09:10:35;;;;;;;31.50;24.10;;;;;;;11.86;60.35;100333.59;1733312;81;21129;-61
2021/03/14 09:13:04;;;;;;;29.63;23.73;;;;;;;11.71;60.69;100325.05;1734563;81;21168;-63
2021/03/14 09:15:35;;;;;;;30.30;24.25;;;;;;;11.81;60.74;100316.98;1748384;81;21134;-56
2021/03/14 09:18:26;;;;;;;31.48;25.25;;;;;;;11.94;60.75;100310.55;1907268;74;22100;-55
2021/03/14 09:20:59;;;;;;;32.48;25.45;;;;;;;11.94;60.09;100318.47;1786042;80;21169;-55
2021/03/14 09:23:41;;;;;;;32.08;25.12;;;;;;;11.90;59.68;100308.44;1792951;79;21126;-56
2021/03/14 09:26:10;;;;;;;32.20;25.12;;;;;;;11.97;59.55;100316.23;1793654;80;21129;-62
2021/03/14 09:28:45;;;;;;;28.00;24.70;;;;;;;11.99;59.77;100303.89;1796157;78;21121;-62
2021/03/14 09:31:15;;;;;;;30.25;24.45;;;;;;;12.03;59.31;100309.56;1816065;78;21712;-62
2021/03/14 09:33:45;;;;;;;32.75;25.45;;;;;;;11.99;59.16;100304.78;1797401;79;21085;-62
2021/03/14 09:36:21;;;;;;;35.15;26.37;;;;;;;12.11;59.52;100297.53;1828615;77;22190;-60
2021/03/14 09:39:00;;;;;;;30.52;25.72;;;;;;;12.08;59.15;100303.75;1761853;81;21127;-56
2021/03/14 09:41:44;;;;;;;31.80;26.20;;;;;;;12.24;59.07;100291.11;1736200;81;21148;-57
2021/03/14 09:44:16;;;;;;;33.35;25.17;;;;;;;12.29;59.10;100285.73;1730693;81;21262;-57
2021/03/14 09:47:02;;;;;;;31.57;24.87;;;;;;;12.31;58.51;100277.33;1816723;77;22190;-60
2021/03/14 09:50:07;;;;;;;27.62;22.80;;;;;;;12.42;58.36;100280.61;1759815;81;21127;-55
2021/03/14 09:52:40;;;;;;;29.72;24.12;;;;;;;12.43;57.58;100266.95;1749732;80;21700;-55
2021/03/14 09:55:10;;;;;;;25.88;21.40;;;;;;;12.41;57.44;100264.36;1710341;83;21621;-56
2021/03/14 09:57:41;;;;;;;27.82;22.07;;;;;;;12.52;57.36;100266.75;1737421;81;21275;-56
2021/03/14 10:00:16;;;;;;;27.02;22.58;;;;;;;12.52;57.08;100261.94;1729415;81;21118;-56
2021/03/14 10:02:46;;;;;;;29.40;24.12;;;;;;;12.62;57.42;100266.09;1712598;82;21178;-57
2021/03/14 10:05:57;;;;;;;28.52;23.42;;;;;;;12.88;57.75;100259.35;1837255;77;22196;-60
2021/03/14 10:08:35;;;;;;;29.02;22.93;;;;;;;12.95;56.89;100254.34;1726378;83;21138;-62
2021/03/14 10:11:06;;;;;;;27.10;22.52;;;;;;;13.03;56.68;100254.15;1704749;83;21744;-62
2021/03/14 10:13:35;;;;;;;25.70;21.73;;;;;;;13.11;56.67;100255.27;1735926;81;21211;-57
2021/03/14 10:16:06;;;;;;;30.48;23.60;;;;;;;13.19;56.37;100248.91;1735938;82;21234;-62
2021/03/14 10:18:35;;;;;;;30.10;23.05;;;;;;;13.22;55.77;100234.73;1698075;83;21186;-57
2021/03/14 10:21:26;;;;;;;28.62;23.55;;;;;;;13.29;56.18;100237.64;1726147;83;21189;-57
2021/03/14 10:24:25;;;;;;;29.48;23.92;;;;;;;13.36;56.50;100237.02;1834775;77;22127;-55
2021/03/14 10:27:01;;;;;;;26.48;22.32;;;;;;;13.51;55.82;100243.70;1777585;80;21215;-61
2021/03/14 10:29:36;;;;;;;27.65;22.55;;;;;;;13.63;55.59;100239.41;1743505;81;21154;-57
2021/03/14 10:32:24;;;;;;;29.37;22.67;;;;;;;13.80;55.23;100234.97;1760289;81;21864;-55
2021/03/14 10:34:59;;;;;;;27.80;22.22;;;;;;;13.88;54.59;100225.96;1762074;81;21513;-62
2021/03/14 10:37:35;;;;;;;31.93;23.65;;;;;;;13.90;53.12;100225.47;1752990;80;21165;-62
2021/03/14 10:40:14;;;;;;;28.42;24.32;;;;;;;13.75;53.22;100222.80;1714833;83;21178;-61
2021/03/14 10:42:44;;;;;;;30.55;24.02;;;;;;;13.91;53.79;100225.88;1699127;83;21312;-57
2021/03/14 10:45:18;;;;;;;28.32;23.18;;;;;;;13.89;54.03;100218.00;1677730;83;21283;-62
2021/03/14 10:48:05;;;;;;;29.77;24.52;;;;;;;14.06;53.79;100217.50;1713155;83;21186;-56
2021/03/14 10:50:40;;;;;;;28.60;23.27;;;;;;;14.20;53.88;100204.30;1824949;77;22607;-55
2021/03/14 10:53:23;;;;;;;30.88;24.85;;;;;;;14.33;53.64;100204.34;1763140;80;21125;-61
2021/03/14 10:56:03;;;;;;;31.02;26.15;;;;;;;14.46;54.20;100200.84;1746183;81;21554;-57
2021/03/14 10:58:42;;;;;;;33.18;26.12;;;;;;;14.51;53.53;100213.48;1691279;83;21174;-62
2021/03/14 11:01:31;;;;;;;31.52;26.30;;;;;;;14.55;53.08;100213.80;1838395;77;22585;-60
2021/03/14 11:04:05;;;;;;;31.60;26.27;;;;;;;14.53;53.65;100212.98;1768344;80;21134;-56
2021/03/14 11:06:36;;;;;;;32.38;25.85;;;;;;;14.49;53.44;100211.82;1793031;80;21296;-61
2021/03/14 11:09:09;;;;;;;32.53;25.55;;;;;;;14.29;53.38;100209.31;1792980;80;21154;-57
2021/03/14 11:11:45;;;;;;;34.48;26.65;;;;;;;14.18;53.60;100203.03;1765177;80;21162;-56
2021/03/14 11:14:39;;;;;;;29.67;24.85;;;;;;;14.23;54.83;100199.79;1720343;81;21510;-61
2021/03/14 11:17:17;;;;;;;32.40;26.62;;;;;;;14.38;54.09;100191.83;1727285;83;21184;-56
2021/03/14 11:19:52;;;;;;;34.53;28.30;;;;;;;14.56;53.79;100190.38;1828973;77;22454;-59
2021/03/14 11:22:21;;;;;;;33.73;28.00;;;;;;;14.54;52.91;100196.19;1707384;83;21210;-55
2021/03/14 11:24:51;;;;;;;33.45;26.90;;;;;;;14.51;53.31;100189.66;1715990;82;21158;-55
2021/03/14 11:27:21;;;;;;;33.35;27.25;;;;;;;14.44;52.95;100190.77;1720003;83;21154;-56
2021/03/14 11:29:49;;;;;;;35.68;26.75;;;;;;;14.29;52.73;100188.14;1715217;82;21173;-56
2021/03/14 11:32:25;;;;;;;32.73;26.17;;;;;;;14.26;52.89;100182.94;1795771;77;22572;-61
2021/03/14 11:35:02;;;;;;;39.70;31.57;;;;;;;14.06;53.50;100180.89;1723761;83;21166;-62
2021/03/14 11:37:45;;;;;;;36.58;29.70;;;;;;;14.00;53.68;100175.34;1825385;77;22181;-56